Detall de PIREP

Printer-friendly versionPDF version

[2008/12/10 08:46:00]
Flight IATA:CT0001
Pilot Number:041
Company ICAO:CAT
Aircraft Type:C172/A
PAX:2
Departing Airport: LEMS
Destination Airport: LELL
Alternate Airport:LEBL
Online: VATSIM
Route:DIRECT RUBI
Flight Level:A4000
No Slew and time accel
No pause
Crash detect
Detect pilot in Cockpit between each 30 and 45 minutes
08:46 Zero fuel Weight: 1990 Lbs, Fuel Weight: 306 Lbs
08:46 VATSIM:No METAR available for LEMS.
08:46 VATSIM:LELL 100830Z 18003KT 7000 FEW015 BKN030 06/04 Q1009
08:46 VOICE CATALONIAN
08:46 Parking Brakes off
08:51 Take-off
08:51 Take off Weight: 2296 Lbs
08:51 Wind: 072º @ 001 Knots Heading: 245º
08:51 POS N41º 46´ 26´´ E001º 53´ 03´´
08:51 Flaps:1 at 69 Knots
08:51 Flaps:0 at 70 Knots
09:06 Wind:057º@001 Knots Heading: 075º Ground Speed: 098 Knots Altitude 1712 ft
09:08 Flaps:1 at 86 Knots
09:09 Flaps:2 at 77 Knots
09:10 TouchDown:Rate
-288 ft/min Speed: 60 Knots
09:11 Flaps:0 at 13 Knots
09:11 VATSIM:LELL 100900Z 15001KT 7000 FEW015 BKN030 06/04 Q1009
09:11 Land
09:11 Wind:072º@001 Knots
09:11 Heading: 116º
09:11 Flight Duration: 00:20
09:11 Landing Weight: 2283 Lbs
09:11 POS N41º 31´ 12´´ E002º 06´ 22´´
09:14 Parking brakes on
09:14 Block to Block Duration: 00:28
09:14 Final Fuel: 291 Lbls
09:14 Spent Fuel: 15 Lbls
09:14 Flight Length: 30 NM
09:14 TOD Land Length: 30 NM

Exportar CSV

Powered by Drupal - Modified by Danger4k